createdAt,value
2018-06-18T00:02:11.481Z,3.40
2018-06-18T00:04:39.163Z,3.30
2018-06-18T00:07:06.851Z,3.07
2018-06-18T00:09:34.510Z,3.73
2018-06-18T00:12:02.050Z,3.60
2018-06-18T00:14:29.690Z,3.50
2018-06-18T00:16:57.310Z,3.30
2018-06-18T00:19:24.982Z,2.73
2018-06-18T00:21:52.642Z,3.40
2018-06-18T00:24:20.303Z,3.40
2018-06-18T00:26:47.931Z,3.00
2018-06-18T00:29:15.570Z,3.00
2018-06-18T00:31:43.246Z,3.90
2018-06-18T00:34:10.917Z,3.63
2018-06-18T00:36:38.587Z,3.33
2018-06-18T00:39:07.381Z,3.20
2018-06-18T00:41:34.910Z,3.27
2018-06-18T00:44:02.536Z,3.20
2018-06-18T00:46:30.093Z,2.73
2018-06-18T00:48:57.615Z,2.50
2018-06-18T00:51:25.276Z,3.60
2018-06-18T00:53:52.792Z,3.20
2018-06-18T00:56:20.413Z,3.20
2018-06-18T00:58:48.038Z,3.73
2018-06-18T01:01:15.734Z,3.30
2018-06-18T01:03:43.385Z,4.23
2018-06-18T01:06:11.027Z,3.03
2018-06-18T01:08:38.688Z,3.57
2018-06-18T01:11:06.196Z,3.83
2018-06-18T01:13:33.892Z,3.80
2018-06-18T01:16:01.393Z,3.10
2018-06-18T01:18:29.083Z,3.10
2018-06-18T01:20:56.781Z,3.40
2018-06-18T01:23:36.826Z,3.53
2018-06-18T01:26:04.456Z,3.20
2018-06-18T01:28:32.122Z,3.67
2018-06-18T01:30:59.753Z,3.30
2018-06-18T01:33:27.292Z,3.10
2018-06-18T01:35:54.948Z,2.90
2018-06-18T01:38:22.567Z,2.87
2018-06-18T01:40:50.267Z,3.30
2018-06-18T01:43:17.833Z,2.73
2018-06-18T01:45:45.502Z,2.70
2018-06-18T01:48:13.123Z,2.93
2018-06-18T01:50:40.663Z,3.63
2018-06-18T01:53:08.258Z,3.03
2018-06-18T01:55:35.816Z,3.03
2018-06-18T01:58:03.326Z,3.70
2018-06-18T02:00:30.998Z,2.83
2018-06-18T02:02:58.647Z,3.40
2018-06-18T02:05:26.176Z,2.93
2018-06-18T02:07:53.809Z,3.03
2018-06-18T02:10:21.478Z,3.70
2018-06-18T02:12:49.164Z,3.00
2018-06-18T02:15:16.886Z,2.80
2018-06-18T02:17:44.571Z,3.17
2018-06-18T02:20:12.206Z,3.97
2018-06-18T02:22:39.755Z,3.57
2018-06-18T02:25:07.287Z,3.13
2018-06-18T02:27:40.521Z,3.10
2018-06-18T02:30:13.626Z,3.03
2018-06-18T02:32:46.906Z,2.97
2018-06-18T02:35:20.017Z,3.03
2018-06-18T02:37:53.311Z,2.80
2018-06-18T02:40:26.524Z,3.60
2018-06-18T02:42:54.103Z,2.67
2018-06-18T02:45:21.758Z,3.57
2018-06-18T02:47:49.439Z,2.93
2018-06-18T02:50:16.933Z,2.97
2018-06-18T02:52:44.492Z,2.90
2018-06-18T02:55:12.141Z,3.20
2018-06-18T02:57:39.797Z,2.60
2018-06-18T03:00:07.522Z,3.30
2018-06-18T03:02:35.056Z,2.97
2018-06-18T03:05:02.682Z,3.50
2018-06-18T03:07:30.237Z,3.53
2018-06-18T03:09:57.902Z,2.80
2018-06-18T03:12:25.437Z,3.23
2018-06-18T03:14:53.118Z,2.80
2018-06-18T03:17:20.746Z,2.90
2018-06-18T03:19:53.902Z,3.17
2018-06-18T03:22:26.925Z,2.97
2018-06-18T03:25:00.149Z,3.03
2018-06-18T03:27:33.393Z,2.27
2018-06-18T03:30:01.058Z,3.27
2018-06-18T03:32:28.720Z,2.67
2018-06-18T03:34:56.379Z,3.00
2018-06-18T03:37:24.034Z,2.90
2018-06-18T03:39:51.634Z,3.03
2018-06-18T03:42:19.131Z,2.90
2018-06-18T03:45:02.400Z,3.73
2018-06-18T03:47:30.014Z,3.00
2018-06-18T03:49:57.719Z,2.93
2018-06-18T03:52:25.263Z,3.33
2018-06-18T03:54:56.413Z,3.43
2018-06-18T03:57:24.118Z,3.60
2018-06-18T03:59:51.803Z,3.10
2018-06-18T04:02:40.194Z,3.20
2018-06-18T04:05:13.429Z,3.53
2018-06-18T04:07:51.501Z,4.00
2018-06-18T04:10:24.838Z,3.63
2018-06-18T04:12:52.507Z,3.50
2018-06-18T04:15:20.042Z,3.37
2018-06-18T04:17:47.612Z,3.90
2018-06-18T04:20:15.117Z,3.57
2018-06-18T04:22:42.674Z,3.53
2018-06-18T04:25:10.350Z,3.13
2018-06-18T04:27:37.934Z,3.27
2018-06-18T04:30:05.476Z,3.03
2018-06-18T04:32:33.142Z,2.80
2018-06-18T04:35:02.742Z,2.83
2018-06-18T04:37:30.464Z,2.90
2018-06-18T04:39:58.147Z,3.00
2018-06-18T04:42:31.397Z,3.47
2018-06-18T04:45:04.499Z,3.07
2018-06-18T04:47:37.668Z,3.40
2018-06-18T04:50:10.850Z,3.47
2018-06-18T04:52:38.599Z,4.00
2018-06-18T04:55:06.107Z,3.97
2018-06-18T04:57:33.852Z,3.57
2018-06-18T05:00:09.603Z,3.87
2018-06-18T05:02:37.252Z,4.73
2018-06-18T05:05:04.875Z,6.40
2018-06-18T05:07:32.776Z,6.30
2018-06-18T05:10:05.837Z,4.83
2018-06-18T05:12:33.572Z,3.87
2018-06-18T05:15:01.720Z,4.20
2018-06-18T05:17:29.383Z,3.63
2018-06-18T05:19:57.112Z,3.20
2018-06-18T05:22:24.670Z,3.90
2018-06-18T05:24:52.738Z,3.43
2018-06-18T05:27:21.754Z,3.77
2018-06-18T05:29:49.515Z,3.10
2018-06-18T05:32:17.160Z,3.43
2018-06-18T05:34:44.920Z,2.97
2018-06-18T05:37:14.133Z,3.50
2018-06-18T05:39:41.664Z,3.43
2018-06-18T05:42:09.200Z,3.50
2018-06-18T05:44:36.818Z,2.67
2018-06-18T05:47:04.626Z,3.00
2018-06-18T05:49:32.288Z,2.77
2018-06-18T05:51:59.926Z,2.93
2018-06-18T05:54:27.480Z,3.00
2018-06-18T05:56:55.144Z,3.40
2018-06-18T05:59:22.830Z,3.10
2018-06-18T06:01:50.385Z,3.43
2018-06-18T06:04:17.939Z,3.43
2018-06-18T06:06:45.591Z,3.10
2018-06-18T06:09:13.228Z,3.07
2018-06-18T06:11:40.919Z,3.10
2018-06-18T06:14:08.634Z,3.00
2018-06-18T06:16:36.174Z,3.03
2018-06-18T06:19:03.720Z,2.90
2018-06-18T06:21:31.360Z,2.83
2018-06-18T06:23:59.000Z,3.40
2018-06-18T06:26:26.543Z,2.70
2018-06-18T06:28:54.229Z,3.17
2018-06-18T06:31:21.924Z,3.03
2018-06-18T06:33:49.593Z,3.00
2018-06-18T06:36:17.815Z,3.10
2018-06-18T06:38:45.353Z,2.67
2018-06-18T06:41:13.051Z,3.40
2018-06-18T06:43:40.695Z,3.10
2018-06-18T06:46:08.285Z,3.00
2018-06-18T06:48:36.452Z,2.63
2018-06-18T06:51:04.308Z,3.03
2018-06-18T06:53:31.979Z,2.10
2018-06-18T06:55:59.717Z,2.97
2018-06-18T06:58:27.238Z,2.60
2018-06-18T07:00:54.769Z,2.70
2018-06-18T07:03:22.314Z,3.00
2018-06-18T07:05:49.857Z,2.30
2018-06-18T07:08:17.439Z,2.33
2018-06-18T07:10:45.051Z,2.47
2018-06-18T07:13:12.696Z,2.63
2018-06-18T07:15:40.316Z,2.80
2018-06-18T07:18:08.098Z,2.60
2018-06-18T07:20:35.754Z,2.73
2018-06-18T07:23:03.456Z,2.67
2018-06-18T07:25:31.161Z,2.80
2018-06-18T07:27:58.843Z,2.17
2018-06-18T07:30:26.546Z,2.43
2018-06-18T07:32:54.161Z,2.70
2018-06-18T07:35:21.859Z,2.33
2018-06-18T07:37:49.508Z,2.50
2018-06-18T07:40:17.151Z,2.10
2018-06-18T07:42:44.746Z,2.43
2018-06-18T07:45:12.330Z,2.30
2018-06-18T07:47:39.999Z,2.10
2018-06-18T07:50:07.704Z,2.50
2018-06-18T07:52:35.339Z,2.10
2018-06-18T07:55:03.084Z,2.17
2018-06-18T07:57:30.822Z,2.07
2018-06-18T07:59:58.451Z,1.90
2018-06-18T08:02:26.019Z,2.60
2018-06-18T08:04:53.661Z,2.00
2018-06-18T08:07:21.347Z,2.13
2018-06-18T08:09:48.898Z,2.00
2018-06-18T08:12:16.407Z,1.80
2018-06-18T08:14:43.951Z,1.67
2018-06-18T08:17:11.614Z,2.13
2018-06-18T08:19:39.274Z,2.20
2018-06-18T08:22:07.860Z,2.20
2018-06-18T08:24:35.535Z,2.17
2018-06-18T08:27:03.782Z,2.20
2018-06-18T08:29:31.368Z,2.23
2018-06-18T08:31:59.027Z,2.00
2018-06-18T08:34:26.670Z,2.30
2018-06-18T08:36:54.318Z,2.13
2018-06-18T08:39:21.976Z,1.63
2018-06-18T08:41:50.110Z,2.37
2018-06-18T08:44:17.819Z,2.40
2018-06-18T08:46:45.331Z,2.30
2018-06-18T08:49:12.882Z,2.03
2018-06-18T08:51:46.066Z,1.73
2018-06-18T08:54:19.199Z,2.00
2018-06-18T08:56:52.371Z,2.10
2018-06-18T08:59:25.646Z,2.07
2018-06-18T09:01:53.353Z,1.60
2018-06-18T09:06:31.391Z,1.90
2018-06-18T09:08:59.262Z,1.70
2018-06-18T09:11:27.271Z,1.70
2018-06-18T09:13:55.007Z,1.70
2018-06-18T09:16:22.672Z,2.27
2018-06-18T09:18:51.330Z,2.00
2018-06-18T09:21:19.094Z,2.20
2018-06-18T09:23:46.710Z,2.17
2018-06-18T09:26:14.362Z,2.07
2018-06-18T09:28:41.957Z,1.80
2018-06-18T09:31:09.527Z,1.93
2018-06-18T09:33:37.210Z,2.20
2018-06-18T09:36:04.822Z,2.10
2018-06-18T09:38:32.330Z,2.10
2018-06-18T09:40:59.915Z,2.37
2018-06-18T09:43:27.410Z,1.97
2018-06-18T09:45:55.566Z,2.20
2018-06-18T09:48:28.780Z,2.27
2018-06-18T09:51:02.167Z,2.37
2018-06-18T09:53:35.351Z,2.27
2018-06-18T09:56:08.726Z,1.90
2018-06-18T09:58:41.897Z,2.20
2018-06-18T10:01:15.690Z,2.40
2018-06-18T10:03:43.515Z,2.30
2018-06-18T10:06:11.229Z,2.13
2018-06-18T10:08:39.067Z,2.20
2018-06-18T10:11:06.751Z,1.97
2018-06-18T10:13:34.594Z,2.10
2018-06-18T10:16:02.659Z,2.50
2018-06-18T10:18:30.551Z,2.30
2018-06-18T10:20:58.320Z,2.20
2018-06-18T10:23:25.878Z,2.13
2018-06-18T10:25:53.650Z,2.27
2018-06-18T10:28:21.180Z,2.30
2018-06-18T10:30:48.715Z,2.30
2018-06-18T10:33:22.811Z,2.10
2018-06-18T10:35:56.034Z,2.17
2018-06-18T10:38:29.306Z,2.00
2018-06-18T10:41:02.499Z,2.10
2018-06-18T10:43:31.836Z,2.23
2018-06-18T10:45:59.749Z,1.70
2018-06-18T10:48:27.279Z,2.23
2018-06-18T11:03:55.049Z,2.00
2018-06-18T11:06:28.334Z,1.83
2018-06-18T11:08:55.976Z,1.83
2018-06-18T11:11:23.660Z,1.60
2018-06-18T11:13:51.246Z,1.60
2018-06-18T11:16:19.178Z,2.17
2018-06-18T11:18:52.216Z,2.00
2018-06-18T11:21:25.480Z,1.83
2018-06-18T11:23:58.921Z,1.93
2018-06-18T11:26:32.269Z,1.90
2018-06-18T11:28:59.877Z,1.90
2018-06-18T11:31:27.570Z,2.20
2018-06-18T11:33:55.252Z,1.90
2018-06-18T11:36:22.961Z,1.67
2018-06-18T11:38:50.502Z,1.90
2018-06-18T11:41:18.231Z,2.00
2018-06-18T11:43:46.650Z,2.10
2018-06-18T11:46:14.274Z,2.10
2018-06-18T11:48:41.961Z,1.70
2018-06-18T11:51:09.647Z,1.80
2018-06-18T11:53:37.427Z,1.40
2018-06-18T11:56:05.156Z,1.53
2018-06-18T11:58:38.568Z,1.80
2018-06-18T12:01:12.314Z,2.00
2018-06-18T12:03:45.626Z,1.53
2018-06-18T12:06:19.449Z,1.90
2018-06-18T12:08:52.810Z,2.20
2018-06-18T12:11:20.434Z,1.67
2018-06-18T12:13:48.306Z,1.87
2018-06-18T12:16:15.891Z,1.73
2018-06-18T12:18:43.460Z,1.67
2018-06-18T12:21:11.067Z,1.77
2018-06-18T12:23:39.082Z,1.70
2018-06-18T12:26:06.966Z,1.90
2018-06-18T12:28:34.492Z,1.57
2018-06-18T12:31:02.201Z,1.67
2018-06-18T12:33:29.903Z,1.70
2018-06-18T12:35:57.615Z,1.67
2018-06-18T12:38:25.308Z,1.90
2018-06-18T12:40:53.042Z,1.50
2018-06-18T12:43:22.311Z,1.60
2018-06-18T12:45:57.902Z,1.70
2018-06-18T12:48:31.132Z,1.50
2018-06-18T12:51:04.471Z,1.47
2018-06-18T12:53:37.501Z,1.37
2018-06-18T12:58:49.917Z,1.40
2018-06-18T13:01:19.082Z,1.80
2018-06-18T13:03:46.742Z,1.73
2018-06-18T13:06:14.453Z,1.43
2018-06-18T13:08:42.078Z,1.57
2018-06-18T13:11:09.641Z,1.20
2018-06-18T13:13:37.123Z,1.73
2018-06-18T13:16:04.836Z,1.50
2018-06-18T13:18:32.360Z,1.47
2018-06-18T13:21:00.108Z,1.40
2018-06-18T13:23:27.627Z,1.60
2018-06-18T13:25:55.133Z,1.37
2018-06-18T13:28:22.783Z,1.60
2018-06-18T13:30:50.416Z,1.63
2018-06-18T13:33:18.056Z,1.53
2018-06-18T13:35:45.715Z,1.70
2018-06-18T13:38:18.942Z,1.63
2018-06-18T13:41:53.589Z,1.63
2018-06-18T13:44:26.681Z,1.60
2018-06-18T13:46:59.851Z,1.55
2018-06-18T13:49:33.156Z,1.40
2018-06-18T13:52:00.761Z,1.60
2018-06-18T13:54:28.328Z,1.25
2018-06-18T13:56:55.821Z,1.52
2018-06-18T13:59:23.729Z,1.40
2018-06-18T14:01:51.409Z,1.60
2018-06-18T14:04:19.104Z,1.60
2018-06-18T14:06:46.761Z,1.55
2018-06-18T14:09:14.372Z,1.57
2018-06-18T14:11:42.013Z,1.57
2018-06-18T14:14:09.599Z,1.20
2018-06-18T14:16:37.228Z,1.70
2018-06-18T14:19:10.444Z,1.25
2018-06-18T14:21:38.074Z,1.55
2018-06-18T14:24:05.679Z,1.32
2018-06-18T14:26:33.336Z,1.37
2018-06-18T14:29:00.978Z,1.45
2018-06-18T14:31:34.287Z,1.25
2018-06-18T14:34:07.567Z,1.30
2018-06-18T14:36:40.770Z,1.30
2018-06-18T14:39:14.037Z,1.30
2018-06-18T14:41:41.758Z,1.42
2018-06-18T14:44:09.386Z,1.40
2018-06-18T14:46:37.018Z,1.32
2018-06-18T14:49:04.861Z,1.55
2018-06-18T14:51:32.519Z,1.40
2018-06-18T14:54:00.327Z,1.47
2018-06-18T14:56:31.659Z,1.30
2018-06-18T14:59:07.794Z,1.30
2018-06-18T15:01:35.457Z,1.57
2018-06-18T15:04:03.177Z,1.40
2018-06-18T15:06:30.796Z,1.20
2018-06-18T15:08:58.443Z,1.30
2018-06-18T15:11:26.057Z,1.52
2018-06-18T15:13:53.675Z,1.70
2018-06-18T15:16:27.728Z,1.30
2018-06-18T15:18:55.378Z,1.40
2018-06-18T15:21:22.912Z,1.30
2018-06-18T15:23:50.502Z,1.40
2018-06-18T15:26:18.114Z,1.30
2018-06-18T15:28:45.807Z,1.82
2018-06-18T15:31:13.578Z,1.40
2018-06-18T15:33:41.113Z,1.40
2018-06-18T15:36:09.588Z,1.47
2018-06-18T15:38:37.234Z,1.90
2018-06-18T15:41:04.892Z,1.50
2018-06-18T15:43:32.534Z,1.80
2018-06-18T15:46:00.199Z,1.70
2018-06-18T15:48:27.688Z,2.10
2018-06-18T15:50:55.380Z,7.40
2018-06-18T15:53:22.999Z,6.87
2018-06-18T15:55:51.633Z,1.70
2018-06-18T15:58:19.216Z,1.60
2018-06-18T16:00:46.815Z,1.40
2018-06-18T16:03:14.592Z,1.83
2018-06-18T16:05:42.237Z,1.60
2018-06-18T16:08:09.897Z,1.40
2018-06-18T16:10:37.589Z,1.60
2018-06-18T16:13:05.331Z,1.70
2018-06-18T16:15:33.020Z,1.67
2018-06-18T16:18:00.707Z,1.80
2018-06-18T16:20:28.232Z,1.67
2018-06-18T16:22:55.853Z,1.50
2018-06-18T16:25:23.466Z,1.70
2018-06-18T16:27:51.146Z,1.50
2018-06-18T16:30:18.747Z,1.97
2018-06-18T16:32:46.394Z,1.70
2018-06-18T16:35:13.897Z,1.60
2018-06-18T16:37:41.528Z,1.80
2018-06-18T16:40:09.273Z,2.10
2018-06-18T16:42:36.920Z,2.27
2018-06-18T16:45:04.502Z,1.70
2018-06-18T16:47:32.120Z,2.33
2018-06-18T16:49:59.777Z,1.90
2018-06-18T16:52:27.417Z,1.67
2018-06-18T16:54:55.113Z,1.80
2018-06-18T16:57:22.718Z,2.40
2018-06-18T16:59:50.262Z,1.93
2018-06-18T17:02:17.793Z,2.27
2018-06-18T17:04:45.337Z,2.50
2018-06-18T17:07:12.838Z,2.03
2018-06-18T17:09:40.470Z,2.20
2018-06-18T17:12:08.108Z,2.33
2018-06-18T17:14:35.769Z,1.80
2018-06-18T17:17:03.359Z,1.90
2018-06-18T17:19:31.000Z,2.77
2018-06-18T17:21:58.693Z,2.80
2018-06-18T17:24:26.323Z,2.30
2018-06-18T17:26:53.854Z,2.67
2018-06-18T17:29:21.437Z,2.67
2018-06-18T17:31:48.993Z,2.40
2018-06-18T17:34:16.640Z,4.17
2018-06-18T17:36:44.268Z,2.63
2018-06-18T17:39:12.810Z,2.80
2018-06-18T17:41:40.787Z,3.03
2018-06-18T17:44:08.299Z,2.30
2018-06-18T17:46:36.079Z,3.00
2018-06-18T17:49:03.591Z,2.80
2018-06-18T17:51:31.269Z,2.33
2018-06-18T17:53:58.985Z,2.57
2018-06-18T17:56:26.703Z,2.60
2018-06-18T17:58:54.263Z,1.93
2018-06-18T18:01:21.981Z,2.17
2018-06-18T18:03:49.668Z,3.47
2018-06-18T18:06:17.259Z,2.27
2018-06-18T18:08:45.114Z,2.20
2018-06-18T18:11:12.735Z,2.43
2018-06-18T18:13:40.437Z,2.17
2018-06-18T18:16:08.067Z,2.70
2018-06-18T18:18:35.742Z,2.27
2018-06-18T18:21:03.386Z,2.50
2018-06-18T18:23:30.988Z,2.60
2018-06-18T18:25:58.635Z,2.30
2018-06-18T18:28:26.184Z,2.53
2018-06-18T18:30:53.692Z,2.10
2018-06-18T18:33:21.401Z,2.20
2018-06-18T18:35:49.138Z,2.20
2018-06-18T18:38:16.685Z,2.00
2018-06-18T18:40:44.344Z,2.30
2018-06-18T18:43:12.025Z,2.13
2018-06-18T18:45:39.729Z,2.37
2018-06-18T18:48:07.299Z,1.80
2018-06-18T18:50:34.939Z,2.10
2018-06-18T18:53:02.615Z,1.90
2018-06-18T18:55:43.087Z,2.30
2018-06-18T18:58:17.547Z,2.17
2018-06-18T19:00:46.122Z,2.10
2018-06-18T19:03:14.090Z,1.90
2018-06-18T19:05:41.903Z,2.40
2018-06-18T19:08:12.482Z,2.70
2018-06-18T19:10:40.673Z,2.27
2018-06-18T19:13:10.137Z,2.50
2018-06-18T19:15:38.119Z,2.90
2018-06-18T19:18:05.839Z,2.13
2018-06-18T19:20:35.829Z,2.40
2018-06-18T19:23:03.613Z,2.00
2018-06-18T19:25:31.434Z,3.10
2018-06-18T19:27:59.154Z,2.40
2018-06-18T19:30:27.015Z,2.40
2018-06-18T19:32:57.201Z,2.93
2018-06-18T19:35:24.812Z,2.10
2018-06-18T19:37:52.500Z,2.83
2018-06-18T19:40:20.154Z,2.40
2018-06-18T19:42:47.855Z,2.97
2018-06-18T19:45:16.068Z,2.30
2018-06-18T19:47:51.459Z,2.40
2018-06-18T19:50:19.110Z,2.30
2018-06-18T19:52:46.824Z,2.30
2018-06-18T19:55:17.585Z,2.40
2018-06-18T19:57:45.237Z,2.60
2018-06-18T20:00:13.042Z,2.53
2018-06-18T20:02:40.570Z,2.77
2018-06-18T20:05:10.390Z,2.90
2018-06-18T20:07:43.375Z,3.30
2018-06-18T20:10:10.864Z,2.77
2018-06-18T20:12:38.359Z,3.10
2018-06-18T20:15:09.375Z,3.23
2018-06-18T20:17:36.991Z,2.90
2018-06-18T20:20:04.569Z,2.50
2018-06-18T20:22:32.094Z,2.70
2018-06-18T20:24:59.814Z,2.83
2018-06-18T20:27:27.391Z,2.73
2018-06-18T20:29:55.152Z,2.87
2018-06-18T20:32:22.766Z,2.73
2018-06-18T20:34:50.404Z,2.93
2018-06-18T20:37:17.990Z,3.00
2018-06-18T20:39:45.627Z,3.10
2018-06-18T20:42:13.199Z,2.93
2018-06-18T20:44:40.858Z,2.73
2018-06-18T20:47:08.475Z,2.80
2018-06-18T20:49:36.180Z,3.17
2018-06-18T20:52:03.733Z,2.93
2018-06-18T20:54:31.298Z,2.77
2018-06-18T20:56:58.948Z,3.17
2018-06-18T20:59:26.514Z,3.50
2018-06-18T21:01:54.125Z,3.10
2018-06-18T21:04:21.729Z,4.13
2018-06-18T21:06:49.283Z,3.30
2018-06-18T21:09:16.763Z,3.03
2018-06-18T21:11:44.452Z,2.73
2018-06-18T21:14:12.089Z,3.23
2018-06-18T21:16:40.993Z,2.43
2018-06-18T21:19:08.704Z,2.97
2018-06-18T21:21:36.391Z,3.07
2018-06-18T21:24:03.892Z,3.60
2018-06-18T21:26:31.581Z,3.10
2018-06-18T21:28:59.186Z,3.57
2018-06-18T21:31:26.827Z,3.13
2018-06-18T21:33:54.304Z,3.50
2018-06-18T21:36:21.884Z,3.67
2018-06-18T21:38:49.903Z,3.07
2018-06-18T21:41:17.485Z,3.27
2018-06-18T21:43:45.151Z,3.83
2018-06-18T21:46:14.298Z,4.37
2018-06-18T21:48:42.663Z,3.73
2018-06-18T21:51:10.831Z,3.33
2018-06-18T21:53:38.364Z,3.97
2018-06-18T21:56:06.893Z,3.90
2018-06-18T21:58:34.489Z,3.93
2018-06-18T22:01:03.154Z,3.60
2018-06-18T22:03:30.714Z,3.73
2018-06-18T22:05:59.073Z,4.63
2018-06-18T22:08:27.351Z,3.97
2018-06-18T22:10:57.177Z,3.93
2018-06-18T22:13:27.420Z,3.93
2018-06-18T22:15:55.633Z,3.90
2018-06-18T22:18:24.860Z,3.70
2018-06-18T22:20:54.285Z,3.67
2018-06-18T22:23:21.799Z,4.40
2018-06-18T22:25:49.403Z,3.80
2018-06-18T22:28:26.723Z,3.30
2018-06-18T22:30:54.398Z,3.60
2018-06-18T22:33:21.910Z,4.00
2018-06-18T22:35:49.570Z,3.80
2018-06-18T22:38:17.253Z,4.07
2018-06-18T22:40:44.832Z,3.03
2018-06-18T22:43:12.444Z,3.77
2018-06-18T22:45:40.044Z,3.50
2018-06-18T22:48:07.709Z,3.47
2018-06-18T22:50:35.201Z,3.87
2018-06-18T22:53:02.823Z,3.70
2018-06-18T22:55:30.459Z,3.90
2018-06-18T22:57:57.984Z,3.77
2018-06-18T23:00:25.635Z,3.90
2018-06-18T23:02:53.250Z,3.47
2018-06-18T23:05:20.889Z,3.67
2018-06-18T23:07:48.573Z,4.07
2018-06-18T23:10:16.178Z,4.00
2018-06-18T23:12:44.093Z,3.90
2018-06-18T23:15:12.528Z,3.63
2018-06-18T23:17:40.359Z,4.07
2018-06-18T23:20:08.486Z,4.70
2018-06-18T23:22:36.180Z,3.93
2018-06-18T23:25:03.778Z,4.90
2018-06-18T23:27:31.268Z,3.80
2018-06-18T23:29:58.889Z,4.70
2018-06-18T23:32:26.505Z,4.67
2018-06-18T23:34:54.020Z,4.67
2018-06-18T23:37:21.641Z,4.30
2018-06-18T23:39:49.245Z,4.00
2018-06-18T23:42:17.136Z,4.53
2018-06-18T23:44:44.681Z,4.30
2018-06-18T23:47:12.266Z,4.10
2018-06-18T23:49:39.873Z,3.90
2018-06-18T23:52:07.493Z,4.20
2018-06-18T23:54:34.992Z,3.80
2018-06-18T23:57:02.617Z,4.30
2018-06-18T23:59:30.109Z,4.53
